Time;durP1;ratioP1;P1;durP2;ratioP2;P2;SDS_P1;SDS_P2;PMS_P1;PMS_P2;Temp;Humidity;BMP_temperature;BMP_pressure;BME280_temperature;BME280_humidity;BME280_pressure;Samples;Min_cycle;Max_cycle;Signal;HPM_P1;HPM_P2
2022/04/18 00:01:51;;;;;;;7.78;6.68;;;;;;;7.60;46.98;95618.59;4991054;28;20034;-71
2022/04/18 00:04:17;;;;;;;8.18;6.50;;;;;;;7.13;46.53;95545.78;4991437;28;20030;-70
2022/04/18 00:06:42;;;;;;;6.88;6.15;;;;;;;7.78;46.81;95651.59;4991298;28;20057;-70
2022/04/18 00:09:08;;;;;;;10.02;7.05;;;;;;;7.21;46.67;95552.34;4990279;28;20529;-70
2022/04/18 00:11:34;;;;;;;6.85;5.95;;;;;;;8.03;46.73;95691.16;4990872;28;20468;-71
2022/04/18 00:13:59;;;;;;;12.55;6.95;;;;;;;7.83;46.76;95630.38;4991260;28;20032;-70
2022/04/18 00:16:25;;;;;;;7.15;6.45;;;;;;;7.81;46.63;95638.59;5017910;22;20053;-64
2022/04/18 00:18:51;;;;;;;7.78;7.07;;;;;;;8.06;46.57;95673.94;5014286;28;20359;-64
2022/04/18 00:21:17;;;;;;;8.55;6.65;;;;;;;7.69;46.71;95622.25;5012749;28;20031;-63
2022/04/18 00:23:43;;;;;;;9.15;6.10;;;;;;;7.73;46.32;95627.81;5013998;28;20466;-64
2022/04/18 00:26:08;;;;;;;8.27;5.60;;;;;;;7.64;46.64;95614.34;5014401;28;20056;-64
2022/04/18 00:28:34;;;;;;;7.47;6.47;;;;;;;7.85;46.74;95638.84;5014235;28;20033;-64
2022/04/18 00:30:59;;;;;;;9.20;6.10;;;;;;;7.62;46.77;95608.50;5013869;28;20025;-64
2022/04/18 00:33:25;;;;;;;6.00;5.47;;;;;;;7.71;46.69;95629.91;5014087;28;20387;-64
2022/04/18 00:35:51;;;;;;;8.13;5.60;;;;;;;7.68;46.65;95611.94;5014198;28;20026;-64
2022/04/18 00:38:17;;;;;;;6.63;5.43;;;;;;;7.81;46.80;95643.09;5014056;28;20106;-64
2022/04/18 00:40:42;;;;;;;8.38;6.63;;;;;;;7.55;47.42;95618.63;5013495;28;20025;-64
2022/04/18 00:43:08;;;;;;;7.15;5.90;;;;;;;7.60;47.18;95612.50;5013900;28;20514;-64
2022/04/18 00:45:34;;;;;;;6.75;5.72;;;;;;;7.47;47.21;95603.28;5013977;28;20064;-64
2022/04/18 00:48:00;;;;;;;7.15;6.13;;;;;;;7.89;47.39;95650.47;5013881;28;20390;-64
2022/04/18 00:50:28;;;;;;;6.75;5.32;;;;;;;7.25;47.09;95548.09;5013413;28;20026;-63
2022/04/18 00:52:55;;;;;;;8.77;5.50;;;;;;;7.92;46.84;95647.25;5012354;28;20053;-64
2022/04/18 00:55:23;;;;;;;7.03;5.47;;;;;;;7.70;46.77;95618.53;5013907;28;20048;-64
2022/04/18 00:57:51;;;;;;;7.53;5.95;;;;;;;7.71;47.17;95633.34;5013969;28;20386;-64
2022/04/18 01:00:16;;;;;;;8.00;6.18;;;;;;;7.73;47.31;95623.28;5011996;28;20025;-64
2022/04/18 01:02:41;;;;;;;8.77;6.43;;;;;;;7.68;47.46;95617.25;5013276;28;20497;-64
2022/04/18 01:05:07;;;;;;;8.05;5.65;;;;;;;7.77;47.04;95618.22;5012278;28;20092;-64
2022/04/18 01:07:36;;;;;;;6.60;6.00;;;;;;;7.60;47.36;95589.47;5012132;28;20033;-64
2022/04/18 01:10:04;;;;;;;6.28;5.50;;;;;;;7.52;47.24;95587.38;5013018;28;20030;-64
2022/04/18 01:12:30;;;;;;;5.80;5.30;;;;;;;7.37;47.86;95612.09;5013082;28;20026;-64
2022/04/18 01:14:55;;;;;;;6.72;6.03;;;;;;;7.74;48.34;95627.53;5012125;28;20032;-64
2022/04/18 01:17:21;;;;;;;9.30;5.55;;;;;;;7.75;47.92;95631.75;5013175;28;20599;-64
2022/04/18 01:19:46;;;;;;;7.35;5.57;;;;;;;7.67;48.84;95634.16;5012036;28;20492;-64
2022/04/18 01:22:15;;;;;;;8.07;5.88;;;;;;;7.46;48.69;95594.56;5011541;28;20025;-65
2022/04/18 01:30:11;;;;;;;7.50;5.93;;;;;;;7.72;48.00;95610.31;5012203;28;20061;-64
2022/04/18 01:32:36;;;;;;;8.55;7.00;;;;;;;7.63;48.14;95601.38;5012673;28;20033;-63
2022/04/18 01:35:02;;;;;;;8.63;6.45;;;;;;;7.62;48.20;95594.47;5011758;28;20052;-63
2022/04/18 01:37:28;;;;;;;7.78;6.88;;;;;;;7.49;48.02;95578.16;5012846;28;20037;-64
2022/04/18 01:39:53;;;;;;;7.32;6.03;;;;;;;7.41;48.15;95576.06;5011572;28;20493;-63
2022/04/18 01:42:18;;;;;;;7.35;6.57;;;;;;;7.24;48.72;95587.00;5012571;28;20026;-63
2022/04/18 01:44:44;;;;;;;7.43;6.72;;;;;;;7.21;48.55;95574.28;5011500;28;20022;-64
2022/04/18 01:47:09;;;;;;;7.55;5.93;;;;;;;7.26;48.27;95576.13;5011542;28;20030;-64
2022/04/18 01:49:34;;;;;;;9.88;6.57;;;;;;;7.21;48.48;95570.88;5011308;28;20467;-64
2022/04/18 01:52:00;;;;;;;6.93;6.22;;;;;;;7.44;48.29;95606.50;5012293;28;20072;-62
2022/04/18 01:54:25;;;;;;;7.05;6.35;;;;;;;7.25;48.68;95572.69;5011117;28;20030;-63
2022/04/18 01:56:51;;;;;;;8.43;6.28;;;;;;;6.96;48.66;95535.53;5012455;28;20026;-63
2022/04/18 01:59:16;;;;;;;8.98;6.78;;;;;;;7.06;48.63;95555.06;5012577;28;20025;-63
2022/04/18 02:01:42;;;;;;;7.28;6.57;;;;;;;6.95;48.50;95539.22;5010770;28;20529;-63
2022/04/18 02:04:08;;;;;;;8.55;6.70;;;;;;;7.07;48.94;95554.81;5012506;28;20034;-64
2022/04/18 02:06:33;;;;;;;7.55;6.78;;;;;;;7.04;48.55;95560.63;5012475;28;20034;-64
2022/04/18 02:08:59;;;;;;;7.18;6.47;;;;;;;7.11;48.36;95574.34;5011269;28;20032;-64
2022/04/18 02:11:25;;;;;;;7.13;6.43;;;;;;;7.22;48.36;95583.84;5010598;28;20057;-64
2022/04/18 02:13:52;;;;;;;7.43;6.47;;;;;;;7.09;48.67;95579.13;5012376;28;20029;-64
2022/04/18 02:16:17;;;;;;;7.95;5.97;;;;;;;7.04;48.59;95574.63;5012419;28;20029;-64
2022/04/18 02:18:42;;;;;;;11.32;6.00;;;;;;;6.76;48.93;95531.13;5012128;28;20026;-64
2022/04/18 02:21:11;;;;;;;6.72;6.05;;;;;;;7.00;49.06;95567.50;5010564;28;20049;-64
2022/04/18 02:23:37;;;;;;;6.40;5.70;;;;;;;6.75;49.33;95534.00;5012009;28;20532;-63
2022/04/18 02:26:03;;;;;;;8.68;6.20;;;;;;;6.81;49.14;95540.88;5010766;28;20034;-63
2022/04/18 02:28:28;;;;;;;6.82;6.15;;;;;;;6.54;49.11;95517.41;5012151;28;20080;-63
2022/04/18 02:30:53;;;;;;;9.10;6.15;;;;;;;6.79;49.44;95537.69;5010394;28;20060;-63
2022/04/18 02:33:19;;;;;;;9.70;6.63;;;;;;;6.92;49.16;95552.22;5012048;28;20401;-63
2022/04/18 02:35:44;;;;;;;6.47;5.80;;;;;;;6.83;49.84;95538.75;5010731;28;20145;-62
2022/04/18 02:38:10;;;;;;;6.95;6.30;;;;;;;6.83;48.73;95541.41;5010578;28;20117;-63
2022/04/18 02:40:35;;;;;;;7.57;6.88;;;;;;;6.58;49.54;95507.13;5010369;28;20448;-63
2022/04/18 02:43:01;;;;;;;8.15;6.13;;;;;;;6.60;49.55;95524.28;5011713;28;20022;-62
2022/04/18 02:45:29;;;;;;;13.35;6.80;;;;;;;6.57;49.16;95514.25;5010444;28;20048;-64
2022/04/18 02:47:54;;;;;;;7.18;6.47;;;;;;;6.50;49.99;95530.41;5011708;28;20521;-63
2022/04/18 02:50:19;;;;;;;6.97;6.28;;;;;;;6.40;50.21;95511.13;5011415;28;20022;-63
2022/04/18 02:52:45;;;;;;;8.68;7.10;;;;;;;6.50;50.16;95514.53;5010259;28;20052;-63
2022/04/18 02:55:11;;;;;;;7.72;7.03;;;;;;;6.55;49.92;95507.63;5011271;28;20029;-63
2022/04/18 02:57:37;;;;;;;7.82;6.68;;;;;;;6.65;50.21;95532.19;5009166;28;20402;-62
2022/04/18 03:00:03;;;;;;;8.50;6.15;;;;;;;6.45;50.01;95500.56;5010958;28;20025;-63
2022/04/18 03:02:29;;;;;;;7.68;6.88;;;;;;;6.34;49.78;95493.69;5009944;28;20062;-63
2022/04/18 03:04:54;;;;;;;11.65;7.10;;;;;;;6.35;50.67;95493.44;5011501;28;20549;-66
2022/04/18 03:07:20;;;;;;;7.85;7.05;;;;;;;6.36;50.21;95499.50;5011559;28;20490;-64
2022/04/18 03:09:46;;;;;;;9.23;6.82;;;;;;;6.40;50.52;95516.41;5011347;28;20052;-64
2022/04/18 03:12:11;;;;;;;9.23;8.05;;;;;;;6.62;50.13;95539.88;5010845;28;20473;-64
2022/04/18 03:14:37;;;;;;;8.43;7.47;;;;;;;6.29;50.57;95480.50;5011508;28;20026;-64
2022/04/18 03:17:03;;;;;;;7.70;6.75;;;;;;;6.38;49.92;95500.03;5011460;28;20062;-63
2022/04/18 03:19:29;;;;;;;7.32;6.63;;;;;;;6.60;50.11;95518.19;5011497;28;20029;-64
2022/04/18 03:21:54;;;;;;;8.85;6.85;;;;;;;6.41;50.16;95510.06;5009702;28;20013;-63
2022/04/18 03:24:19;;;;;;;8.40;6.85;;;;;;;6.28;50.21;95482.34;5011218;28;20049;-63
2022/04/18 03:26:45;;;;;;;10.52;6.43;;;;;;;6.17;50.06;95483.44;5010073;28;20074;-63
2022/04/18 03:29:11;;;;;;;7.40;6.72;;;;;;;6.23;50.35;95483.16;5010081;28;20065;-63
2022/04/18 03:31:36;;;;;;;7.63;6.72;;;;;;;6.03;50.13;95458.63;5010773;28;20113;-63
2022/04/18 03:34:01;;;;;;;7.53;6.43;;;;;;;6.42;50.85;95509.78;5011329;28;20030;-63
2022/04/18 03:41:55;;;;;;;7.88;6.45;;;;;;;6.42;50.66;95501.88;5011036;28;20045;-64
2022/04/18 03:44:20;;;;;;;6.75;6.05;;;;;;;6.12;50.18;95457.03;5011315;28;20022;-64
2022/04/18 03:46:45;;;;;;;9.45;7.15;;;;;;;6.28;50.69;95476.28;5011167;28;20030;-64
2022/04/18 03:49:11;;;;;;;8.05;7.25;;;;;;;6.36;50.42;95495.03;5009825;28;20032;-64
2022/04/18 03:51:37;;;;;;;8.68;6.13;;;;;;;6.39;50.35;95496.31;5009954;28;20036;-63
2022/04/18 03:54:02;;;;;;;7.82;6.40;;;;;;;6.29;50.52;95485.78;5013582;28;20388;-64
2022/04/18 03:56:28;;;;;;;7.00;6.22;;;;;;;6.46;50.23;95515.34;5014843;28;20037;-64
2022/04/18 03:58:53;;;;;;;9.15;6.32;;;;;;;6.35;50.22;95492.66;5013478;28;20026;-62
2022/04/18 04:01:19;;;;;;;6.20;5.60;;;;;;;6.24;49.90;95468.91;5014373;28;20037;-63
2022/04/18 04:03:44;;;;;;;7.13;6.30;;;;;;;6.56;50.41;95510.03;5013229;28;20026;-63
2022/04/18 04:06:09;;;;;;;7.45;6.75;;;;;;;6.42;49.89;95485.22;5013596;28;20823;-63
2022/04/18 04:08:35;;;;;;;7.85;7.05;;;;;;;6.42;49.89;95493.94;5013375;28;20454;-64
2022/04/18 04:11:00;;;;;;;6.93;6.13;;;;;;;6.46;49.48;95476.50;5014339;28;20053;-64
2022/04/18 04:13:26;;;;;;;6.75;5.97;;;;;;;6.26;49.43;95436.94;5013171;28;20393;-63
2022/04/18 04:15:51;;;;;;;6.10;5.30;;;;;;;6.47;49.30;95461.44;5013194;28;20061;-65
2022/04/18 04:18:16;;;;;;;6.20;5.68;;;;;;;6.44;49.39;95456.66;5014731;28;20064;-64
2022/04/18 04:20:42;;;;;;;6.90;6.28;;;;;;;6.64;49.45;95482.25;5013917;28;20022;-63
2022/04/18 04:23:07;;;;;;;7.18;6.35;;;;;;;6.45;49.44;95461.72;5014300;28;20445;-63
2022/04/18 04:25:33;;;;;;;7.60;6.90;;;;;;;6.35;49.21;95447.75;5014306;28;20029;-63
2022/04/18 04:27:58;;;;;;;10.45;5.80;;;;;;;6.40;49.23;95451.16;5014091;28;20033;-63
2022/04/18 04:30:24;;;;;;;7.07;6.38;;;;;;;6.49;49.84;95454.00;5012556;28;20026;-63
2022/04/18 04:32:50;;;;;;;7.05;6.35;;;;;;;6.66;49.15;95472.22;5014075;28;20022;-64
2022/04/18 04:35:17;;;;;;;6.72;6.10;;;;;;;6.56;49.64;95443.16;5014176;28;20455;-63
2022/04/18 04:37:42;;;;;;;6.35;5.85;;;;;;;6.81;49.46;95481.91;5012740;28;20044;-65
2022/04/18 04:40:09;;;;;;;6.88;6.18;;;;;;;6.93;48.84;95495.63;5012582;28;20037;-62
2022/04/18 04:42:34;;;;;;;5.97;5.45;;;;;;;6.75;48.94;95447.56;5013779;28;20084;-62
2022/04/18 04:45:00;;;;;;;6.50;5.90;;;;;;;6.65;49.68;95481.97;5013967;28;20037;-64
2022/04/18 04:47:26;;;;;;;6.10;5.47;;;;;;;7.13;49.10;95494.72;5012630;28;20033;-64
2022/04/18 04:49:51;;;;;;;6.95;5.72;;;;;;;6.93;48.33;95451.44;5013979;28;20446;-64
2022/04/18 04:52:16;;;;;;;5.97;5.40;;;;;;;7.27;48.36;95488.56;5013342;28;20033;-64
2022/04/18 04:54:42;;;;;;;9.48;5.90;;;;;;;7.28;48.40;95476.91;5012703;28;20060;-65
2022/04/18 04:57:07;;;;;;;5.47;4.90;;;;;;;7.29;47.71;95449.38;5013865;28;20095;-64
2022/04/18 04:59:33;;;;;;;5.90;5.35;;;;;;;7.39;47.50;95442.44;5013657;28;20030;-64
2022/04/18 05:01:58;;;;;;;6.20;5.60;;;;;;;7.81;47.90;95490.28;5013196;28;20026;-62
2022/04/18 05:04:25;;;;;;;5.68;4.95;;;;;;;7.83;47.39;95487.38;5012617;28;20033;-63
2022/04/18 05:06:51;;;;;;;6.40;5.80;;;;;;;8.00;46.81;95492.25;5013612;28;20092;-64
2022/04/18 05:09:17;;;;;;;6.15;5.43;;;;;;;7.86;46.39;95468.25;5013578;28;20033;-64
2022/04/18 05:11:42;;;;;;;6.13;5.03;;;;;;;7.87;46.93;95461.91;5012987;28;20030;-64
2022/04/18 05:14:07;;;;;;;6.32;4.97;;;;;;;8.05;46.54;95500.16;5013485;28;20026;-64
2022/04/18 05:16:33;;;;;;;5.70;5.22;;;;;;;8.10;46.29;95505.41;5011985;28;20030;-64
2022/04/18 05:18:58;;;;;;;7.57;5.40;;;;;;;7.90;46.19;95449.97;5011931;28;20065;-64
2022/04/18 05:21:24;;;;;;;6.68;5.30;;;;;;;8.04;46.25;95467.59;5012875;28;20026;-65
2022/04/18 05:23:49;;;;;;;7.00;5.70;;;;;;;8.08;46.36;95459.84;5012156;28;20021;-63
2022/04/18 05:26:15;;;;;;;6.85;5.40;;;;;;;7.66;46.54;95391.66;5013142;28;20026;-64
2022/04/18 05:28:41;;;;;;;6.38;5.88;;;;;;;8.28;46.39;95472.13;5013196;28;20176;-63
2022/04/18 05:31:07;;;;;;;5.88;5.30;;;;;;;7.84;45.78;95427.25;5012627;28;20070;-63
2022/04/18 05:33:32;;;;;;;5.88;5.38;;;;;;;7.50;45.70;95359.25;5012904;28;20787;-64
2022/04/18 05:35:58;;;;;;;6.05;5.40;;;;;;;8.33;45.96;95477.34;5013048;28;20025;-64
2022/04/18 05:38:23;;;;;;;6.53;5.82;;;;;;;8.31;45.93;95466.25;5011545;28;20478;-64
2022/04/18 05:40:49;;;;;;;5.57;5.07;;;;;;;8.41;45.26;95497.22;5011506;28;20363;-64
2022/04/18 05:43:17;;;;;;;5.72;5.18;;;;;;;8.80;45.14;95505.78;5012675;28;20115;-64
2022/04/18 05:45:43;;;;;;;7.28;5.15;;;;;;;8.57;45.16;95466.81;5012851;28;20060;-65
2022/04/18 05:48:08;;;;;;;6.40;5.80;;;;;;;8.98;44.56;95536.09;5011439;28;20025;-64
2022/04/18 05:50:34;;;;;;;6.35;5.70;;;;;;;8.92;44.42;95478.06;5012330;28;20078;-63
2022/04/18 05:53:00;;;;;;;5.70;5.10;;;;;;;9.25;44.47;95511.59;5011335;28;20449;-64
2022/04/18 05:55:25;;;;;;;6.20;5.65;;;;;;;9.27;44.48;95525.38;5012603;28;20537;-65
2022/04/18 05:57:52;;;;;;;5.50;5.05;;;;;;;9.21;44.32;95478.72;5012635;28;20034;-64
2022/04/18 06:00:18;;;;;;;7.57;5.70;;;;;;;9.22;44.05;95472.34;5012147;28;20046;-63
2022/04/18 06:02:44;;;;;;;8.35;5.43;;;;;;;9.49;43.70;95487.63;5012389;28;20022;-64
2022/04/18 06:05:09;;;;;;;6.50;5.13;;;;;;;9.56;43.35;95473.97;5011282;28;20092;-64
2022/04/18 06:07:35;;;;;;;5.60;5.10;;;;;;;9.77;42.91;95499.16;5012374;28;20462;-61
2022/04/18 06:10:04;;;;;;;6.50;5.00;;;;;;;9.99;42.95;95514.50;5012246;28;20026;-63
2022/04/18 06:12:31;;;;;;;5.47;5.00;;;;;;;10.08;43.21;95509.28;5012125;28;20029;-64
2022/04/18 06:14:57;;;;;;;5.68;5.18;;;;;;;9.94;43.10;95471.28;5012063;28;20026;-65
2022/04/18 06:17:23;;;;;;;5.22;4.72;;;;;;;10.36;42.61;95489.72;5011956;28;20041;-66
2022/04/18 06:19:49;;;;;;;6.25;4.70;;;;;;;10.13;41.34;95435.59;5057650;22;20052;-74
2022/04/18 06:22:16;;;;;;;6.85;5.22;;;;;;;10.65;41.04;95491.31;5050604;28;20477;-75
2022/04/18 06:24:42;;;;;;;5.80;4.70;;;;;;;10.70;40.48;95464.63;5050771;28;20029;-67
2022/04/18 06:27:07;;;;;;;4.85;4.45;;;;;;;10.65;40.74;95451.41;5050647;28;20040;-66
2022/04/18 06:29:32;;;;;;;5.10;4.60;;;;;;;10.71;39.85;95428.94;5050379;28;20032;-67
2022/04/18 06:31:58;;;;;;;6.53;4.95;;;;;;;11.08;39.87;95475.03;5050981;28;20029;-67
2022/04/18 06:34:25;;;;;;;4.38;3.97;;;;;;;10.91;39.30;95449.81;5051986;28;20025;-68
2022/04/18 06:36:51;;;;;;;5.15;4.43;;;;;;;11.30;39.24;95488.38;5051943;28;20500;-72
2022/04/18 06:39:17;;;;;;;6.20;4.40;;;;;;;11.29;39.24;95502.00;5051899;28;20025;-72
2022/04/18 06:41:43;;;;;;;4.57;4.07;;;;;;;10.94;38.66;95421.81;5049826;28;20086;-73
2022/04/18 06:44:08;;;;;;;7.13;4.55;;;;;;;11.17;38.73;95446.63;5050060;28;20028;-73
2022/04/18 06:46:33;;;;;;;5.15;4.32;;;;;;;11.38;38.13;95470.91;5050006;28;20033;-71
2022/04/18 06:48:59;;;;;;;5.85;3.92;;;;;;;11.54;38.24;95485.47;5050091;28;20025;-70
2022/04/18 06:51:25;;;;;;;4.82;4.30;;;;;;;11.61;38.27;95474.38;5049330;28;20078;-71
2022/04/18 06:53:51;;;;;;;4.68;3.97;;;;;;;11.68;37.58;95472.09;5051075;28;20029;-72
2022/04/18 06:59:00;;;;;;;4.95;4.18;;;;;;;9.93;37.49;95190.69;5051227;28;20451;-74
2022/04/18 07:01:25;;;;;;;4.65;3.72;;;;;;;11.44;37.29;95398.56;5049502;28;20025;-69
2022/04/18 07:03:51;;;;;;;6.93;3.85;;;;;;;11.25;36.99;95344.69;5051011;28;20376;-67
2022/04/18 07:06:16;;;;;;;7.00;4.50;;;;;;;10.74;36.50;95247.41;5039380;28;20056;-66
2022/04/18 07:08:42;;;;;;;6.25;4.10;;;;;;;11.88;35.99;95407.69;5031232;28;20087;-67
2022/04/18 07:11:08;;;;;;;5.90;3.70;;;;;;;12.05;36.29;95422.19;5030844;28;20037;-67
2022/04/18 07:13:34;;;;;;;4.25;3.42;;;;;;;11.99;35.32;95463.41;5029648;28;20563;-66
2022/04/18 07:16:01;;;;;;;3.95;3.38;;;;;;;12.54;34.70;95495.06;5031081;28;20057;-67
2022/04/18 07:18:26;;;;;;;4.47;3.30;;;;;;;12.10;34.82;95425.50;5031007;28;20068;-66
2022/04/18 07:20:52;;;;;;;3.25;2.90;;;;;;;11.66;33.90;95362.34;5030213;28;20057;-67
2022/04/18 07:23:17;;;;;;;5.55;3.25;;;;;;;11.37;33.68;95321.00;5030980;28;20561;-66
2022/04/18 07:25:43;;;;;;;4.97;2.92;;;;;;;11.19;33.38;95279.34;5031220;28;20022;-68
2022/04/18 07:28:08;;;;;;;3.45;3.15;;;;;;;11.92;33.77;95378.50;5034174;28;20018;-68
2022/04/18 07:30:33;;;;;;;3.35;3.05;;;;;;;10.76;32.92;95149.47;5034988;28;20018;-68
2022/04/18 07:32:59;;;;;;;4.30;2.70;;;;;;;12.73;32.76;95477.72;5035113;28;20018;-69
2022/04/18 07:35:25;;;;;;;3.78;2.80;;;;;;;12.74;32.84;95449.13;5035176;28;20056;-68
2022/04/18 07:40:35;;;;;;;2.90;2.60;;;;;;;11.05;32.25;95212.09;5034557;28;20140;-69
2022/04/18 07:43:01;;;;;;;3.60;2.83;;;;;;;12.59;32.05;95453.03;5034851;28;20108;-68
2022/04/18 07:45:26;;;;;;;3.00;2.53;;;;;;;10.60;32.63;95166.91;5035099;28;20141;-69
2022/04/18 07:47:52;;;;;;;2.45;2.25;;;;;;;11.43;32.45;95212.44;5034900;28;20735;-67
2022/04/18 07:50:18;;;;;;;3.90;3.05;;;;;;;12.42;32.36;95467.06;5034593;28;20481;-66
2022/04/18 07:52:43;;;;;;;3.17;2.80;;;;;;;11.79;32.30;95291.44;5034458;28;20405;-69
2022/04/18 07:55:09;;;;;;;2.88;2.45;;;;;;;12.18;32.00;95314.63;5034581;28;20021;-69
2022/04/18 07:57:37;;;;;;;3.33;2.55;;;;;;;12.45;31.74;95358.97;5034599;28;20561;-68
2022/04/18 08:00:05;;;;;;;3.22;2.60;;;;;;;12.76;31.87;95369.56;5034392;28;20025;-71
2022/04/18 08:02:30;;;;;;;2.95;2.58;;;;;;;13.50;31.61;95424.78;5033036;28;20045;-70
2022/04/18 08:04:55;;;;;;;3.22;2.92;;;;;;;13.41;30.85;95488.91;5034478;28;20477;-69
2022/04/18 08:07:21;;;;;;;3.60;2.47;;;;;;;12.82;31.32;95405.69;5046767;28;20033;-70
2022/04/18 08:09:46;;;;;;;3.10;2.35;;;;;;;13.62;30.81;95504.34;5038896;28;20072;-72
2022/04/18 08:12:12;;;;;;;2.97;2.58;;;;;;;13.24;30.75;95465.63;5032940;28;20029;-69
2022/04/18 08:14:38;;;;;;;3.22;2.38;;;;;;;13.88;29.86;95461.56;5044763;28;20029;-70
2022/04/18 08:17:04;;;;;;;3.40;2.45;;;;;;;14.11;29.33;95462.13;5054072;28;20083;-70
2022/04/18 08:19:29;;;;;;;3.97;2.60;;;;;;;14.08;29.39;95462.78;5054104;28;20025;-70
2022/04/18 08:21:55;;;;;;;3.47;2.38;;;;;;;12.77;29.16;95277.69;5052644;28;20040;-66
2022/04/18 08:24:21;;;;;;;3.10;2.72;;;;;;;14.03;29.44;95447.69;5053927;28;20029;-68
2022/04/18 08:26:48;;;;;;;2.97;2.50;;;;;;;13.57;29.03;95347.59;5054282;28;20025;-73
2022/04/18 08:29:14;;;;;;;3.08;2.78;;;;;;;14.03;28.88;95493.94;5054333;28;20029;-72
2022/04/18 08:31:39;;;;;;;2.45;2.15;;;;;;;14.20;29.36;95503.03;5052467;28;20119;-70
2022/04/18 08:34:05;;;;;;;3.28;2.35;;;;;;;12.50;30.44;95348.16;5052759;28;20170;-75
2022/04/18 08:36:30;;;;;;;6.40;2.13;;;;;;;14.05;29.34;95446.25;5049990;28;20090;-72
2022/04/18 08:38:56;;;;;;;4.03;2.33;;;;;;;13.77;28.13;95424.44;5033992;28;20044;-70
2022/04/18 08:41:24;;;;;;;2.13;1.92;;;;;;;13.44;27.04;95377.94;5032000;28;20034;-72
2022/04/18 08:43:52;;;;;;;3.55;2.50;;;;;;;12.69;28.15;95338.00;5033664;28;20018;-71
2022/04/18 08:46:17;;;;;;;7.82;2.35;;;;;;;14.28;28.42;95499.56;5033626;28;20029;-73
2022/04/18 08:54:15;;;;;;;2.70;2.00;;;;;;;14.49;26.05;95412.16;5033696;28;20033;-69
2022/04/18 08:56:41;;;;;;;4.85;2.25;;;;;;;14.38;25.73;95400.19;5033601;28;20033;-69
2022/04/18 08:59:06;;;;;;;2.38;2.15;;;;;;;14.48;25.55;95450.72;5032144;28;20036;-70
2022/04/18 09:01:31;;;;;;;2.13;1.92;;;;;;;13.66;26.19;95368.94;5032989;28;20037;-72
2022/04/18 09:03:59;;;;;;;2.90;2.20;;;;;;;13.90;26.78;95382.56;5033258;28;20022;-67
2022/04/18 09:06:25;;;;;;;3.10;2.00;;;;;;;14.17;26.71;95434.09;5031240;28;20390;-67
2022/04/18 09:08:56;;;;;;;3.05;2.17;;;;;;;14.45;26.73;95467.41;5032218;28;20033;-69
2022/04/18 09:11:25;;;;;;;4.77;2.23;;;;;;;13.96;27.37;95432.09;5032731;28;20025;-67
2022/04/18 09:13:57;;;;;;;3.10;1.88;;;;;;;13.79;26.60;95405.41;5033313;28;20708;-67
2022/04/18 09:16:29;;;;;;;2.22;1.83;;;;;;;14.57;26.51;95486.28;5033042;28;20021;-67
2022/04/18 09:19:05;;;;;;;2.22;2.03;;;;;;;15.03;26.16;95494.59;5032831;28;20228;-66
2022/04/18 09:21:32;;;;;;;2.58;2.17;;;;;;;12.54;26.40;95158.88;5031168;28;20440;-66
2022/04/18 09:23:58;;;;;;;2.75;2.03;;;;;;;13.18;27.53;95252.38;5033060;28;20057;-66
2022/04/18 09:26:24;;;;;;;2.78;2.00;;;;;;;14.73;26.18;95472.34;5035385;28;20037;-68
2022/04/18 09:28:50;;;;;;;3.08;1.90;;;;;;;13.29;25.97;95240.28;5039433;28;20099;-68
2022/04/18 09:31:19;;;;;;;3.35;2.10;;;;;;;14.52;25.44;95466.94;5031394;28;20458;-68
2022/04/18 09:33:53;;;;;;;2.42;1.90;;;;;;;12.47;24.90;95157.47;5031940;28;20049;-67
2022/04/18 09:36:21;;;;;;;2.53;1.80;;;;;;;13.69;24.49;95331.69;5031501;28;20640;-68
2022/04/18 09:38:54;;;;;;;2.28;1.92;;;;;;;13.33;24.78;95213.72;5031632;28;20037;-66
2022/04/18 09:41:25;;;;;;;2.50;2.30;;;;;;;13.74;24.87;95215.78;5029861;28;20025;-66
2022/04/18 09:43:53;;;;;;;2.55;1.92;;;;;;;12.56;24.98;95112.09;5039451;28;20035;-67
2022/04/18 09:46:20;;;;;;;1.90;1.80;;;;;;;13.37;25.17;95254.75;5048204;28;20077;-66
2022/04/18 09:48:47;;;;;;;2.58;1.75;;;;;;;14.39;25.10;95433.91;5037342;28;20031;-67
2022/04/18 09:51:15;;;;;;;3.05;2.10;;;;;;;14.89;24.93;95481.41;5049093;28;20029;-66
2022/04/18 09:53:44;;;;;;;3.10;2.33;;;;;;;13.35;26.37;95286.31;5039264;28;20056;-69
2022/04/18 09:56:17;;;;;;;3.78;2.40;;;;;;;14.07;25.78;95411.16;5037206;28;20076;-71
2022/04/18 09:58:43;;;;;;;2.33;1.83;;;;;;;13.65;25.44;95351.34;5051624;28;20028;-70
2022/04/18 10:01:11;;;;;;;2.58;2.03;;;;;;;13.41;25.32;95333.13;5035052;28;20025;-67
2022/04/18 10:03:38;;;;;;;2.90;2.40;;;;;;;13.31;25.54;95285.38;5031957;28;20432;-66
2022/04/18 10:06:04;;;;;;;3.03;1.85;;;;;;;13.59;24.77;95315.97;5032431;28;20022;-66
2022/04/18 10:08:31;;;;;;;2.63;2.10;;;;;;;14.52;24.30;95392.75;5038316;28;20029;-69
2022/04/18 10:10:58;;;;;;;4.97;1.98;;;;;;;13.94;24.29;95249.81;5045310;28;20021;-69
2022/04/18 10:13:25;;;;;;;4.68;2.40;;;;;;;14.07;25.15;95253.34;5034321;28;20041;-67
2022/04/18 10:15:51;;;;;;;3.00;2.08;;;;;;;14.96;25.51;95368.44;5040890;28;20072;-67
2022/04/18 10:18:18;;;;;;;4.07;2.47;;;;;;;13.24;26.23;95161.09;5032115;28;20140;-67
2022/04/18 10:21:07;;;;;;;2.50;2.30;;;;;;;14.44;26.70;95444.44;5031767;28;20037;-68
2022/04/18 10:23:41;;;;;;;2.70;2.47;;;;;;;14.96;25.76;95438.06;5032630;28;20064;-68
2022/04/18 10:28:55;;;;;;;2.70;2.50;;;;;;;14.68;26.26;95438.50;5045336;23;20056;-64
2022/04/18 10:31:26;;;;;;;3.75;2.47;;;;;;;15.08;25.56;95435.47;5009462;28;20140;-65
2022/04/18 10:33:52;;;;;;;2.83;2.17;;;;;;;15.30;25.67;95429.00;5009739;28;20025;-64
2022/04/18 10:36:34;;;;;;;2.40;2.15;;;;;;;14.91;25.83;95417.63;5010905;28;20050;-64
2022/04/18 10:39:05;;;;;;;2.70;2.30;;;;;;;15.01;26.44;95419.13;4987753;28;20398;-64
2022/04/18 10:41:42;;;;;;;2.88;2.10;;;;;;;14.83;25.75;95423.78;4988518;28;20033;-66
2022/04/18 10:44:09;;;;;;;3.05;2.50;;;;;;;15.01;25.31;95413.78;4991562;28;20045;-68
2022/04/18 10:46:41;;;;;;;3.65;2.22;;;;;;;15.52;25.29;95415.28;4992511;28;20500;-66
2022/04/18 10:49:19;;;;;;;2.58;2.38;;;;;;;14.66;25.55;95418.53;4989965;28;20151;-68
2022/04/18 10:51:46;;;;;;;2.55;2.10;;;;;;;15.09;25.08;95381.56;4990440;28;20078;-64
2022/04/18 10:54:23;;;;;;;3.33;2.17;;;;;;;14.40;26.13;95414.06;4988766;28;20022;-67
2022/04/18 10:56:57;;;;;;;3.72;2.47;;;;;;;14.87;25.46;95408.66;4989584;28;20026;-65
2022/04/18 10:59:34;;;;;;;3.20;2.30;;;;;;;14.52;25.61;95411.50;4987980;28;20026;-67
2022/04/18 11:02:01;;;;;;;3.97;2.40;;;;;;;14.64;25.78;95410.03;4990680;28;20161;-66
2022/04/18 11:04:33;;;;;;;2.45;2.25;;;;;;;15.00;24.99;95404.19;4989637;28;20057;-67
2022/04/18 11:07:07;;;;;;;3.50;2.42;;;;;;;15.21;24.78;95380.84;4991833;28;20058;-67
2022/04/18 11:09:36;;;;;;;3.25;2.38;;;;;;;15.13;25.69;95400.44;4987856;28;20208;-67
2022/04/18 11:12:13;;;;;;;2.60;2.30;;;;;;;15.27;24.52;95384.91;5005620;28;20112;-67
2022/04/18 11:14:44;;;;;;;168.80;91.10;;;;;;;15.89;29.04;95391.31;4989860;28;20029;-66
2022/04/18 11:17:11;;;;;;;98.88;57.10;;;;;;;16.05;30.07;95388.78;4988592;28;20117;-68
2022/04/18 11:19:42;;;;;;;53.17;30.83;;;;;;;16.69;26.59;95387.41;4991922;28;20422;-70
2022/04/18 11:22:10;;;;;;;21.45;16.67;;;;;;;16.48;26.84;95380.25;4990145;28;20018;-69
2022/04/18 11:24:42;;;;;;;3.20;2.53;;;;;;;16.40;23.75;95378.44;4988655;28;20394;-68
2022/04/18 11:27:15;;;;;;;2.80;2.38;;;;;;;16.33;24.76;95387.06;4989840;28;20097;-66
2022/04/18 11:30:05;;;;;;;2.60;2.25;;;;;;;16.09;23.69;95387.00;4990632;28;20031;-68
2022/04/18 11:32:34;;;;;;;2.75;2.55;;;;;;;15.37;24.22;95375.69;4990307;28;20398;-67
2022/04/18 11:35:01;;;;;;;2.78;2.17;;;;;;;15.70;24.75;95377.63;4990768;28;20026;-68
2022/04/18 11:37:54;;;;;;;2.22;2.03;;;;;;;15.69;24.38;95373.38;4989271;28;20034;-67
2022/04/18 11:40:19;;;;;;;2.53;2.30;;;;;;;15.48;24.24;95374.16;4986205;28;20034;-67
2022/04/18 11:42:45;;;;;;;29.00;20.92;;;;;;;15.56;40.33;95376.00;4990399;28;20360;-65
2022/04/18 11:45:24;;;;;;;18.23;13.25;;;;;;;16.11;31.59;95353.34;4988742;28;20026;-62
2022/04/18 11:47:49;;;;;;;19.38;7.85;;;;;;;17.01;27.09;95361.53;4990246;28;20022;-61
2022/04/18 11:50:21;;;;;;;8.88;6.95;;;;;;;17.11;26.45;95358.38;4991114;28;20081;-61
2022/04/18 11:52:48;;;;;;;3.92;3.45;;;;;;;16.98;23.83;95368.34;4996972;28;20026;-62
2022/04/18 11:55:15;;;;;;;4.68;3.63;;;;;;;17.34;23.85;95358.63;4998612;28;20044;-65
2022/04/18 11:57:46;;;;;;;4.07;2.47;;;;;;;16.01;24.64;95356.47;4996839;28;20041;-64
2022/04/18 12:00:14;;;;;;;6.07;2.50;;;;;;;16.54;23.42;95360.09;4991199;28;20034;-64